sensor_id;sensor_type;location;lat;lon;timestamp;temperature;humidity
7476;DHT22;3779;49.216;8.650;2022-12-18T00:00:04;14.90;18.40
7476;DHT22;3779;49.216;8.650;2022-12-18T00:02:59;15.00;18.50
7476;DHT22;3779;49.216;8.650;2022-12-18T00:05:52;15.00;18.60
7476;DHT22;3779;49.216;8.650;2022-12-18T00:08:38;15.00;18.80
7476;DHT22;3779;49.216;8.650;2022-12-18T00:11:27;15.00;18.70
7476;DHT22;3779;49.216;8.650;2022-12-18T00:14:13;15.00;18.60
7476;DHT22;3779;49.216;8.650;2022-12-18T00:16:59;15.00;19.00
7476;DHT22;3779;49.216;8.650;2022-12-18T00:19:46;15.00;18.50
7476;DHT22;3779;49.216;8.650;2022-12-18T00:22:32;15.00;18.40
7476;DHT22;3779;49.216;8.650;2022-12-18T00:25:17;15.00;18.40
7476;DHT22;3779;49.216;8.650;2022-12-18T00:28:04;15.00;18.60
7476;DHT22;3779;49.216;8.650;2022-12-18T00:30:49;15.00;18.60
7476;DHT22;3779;49.216;8.650;2022-12-18T00:33:37;15.00;18.60
7476;DHT22;3779;49.216;8.650;2022-12-18T00:36:26;15.00;18.70
7476;DHT22;3779;49.216;8.650;2022-12-18T00:39:12;15.00;18.50
7476;DHT22;3779;49.216;8.650;2022-12-18T00:41:58;15.00;18.40
7476;DHT22;3779;49.216;8.650;2022-12-18T00:45:02;15.00;18.40
7476;DHT22;3779;49.216;8.650;2022-12-18T00:47:51;15.00;18.50
7476;DHT22;3779;49.216;8.650;2022-12-18T00:50:37;14.90;18.40
7476;DHT22;3779;49.216;8.650;2022-12-18T00:53:23;15.00;18.40
7476;DHT22;3779;49.216;8.650;2022-12-18T00:56:09;15.00;18.40
7476;DHT22;3779;49.216;8.650;2022-12-18T00:58:54;14.90;18.30
7476;DHT22;3779;49.216;8.650;2022-12-18T01:01:40;14.90;18.40
7476;DHT22;3779;49.216;8.650;2022-12-18T01:04:26;14.90;18.30
7476;DHT22;3779;49.216;8.650;2022-12-18T01:07:12;14.90;18.30
7476;DHT22;3779;49.216;8.650;2022-12-18T01:09:58;14.90;18.30
7476;DHT22;3779;49.216;8.650;2022-12-18T01:12:45;14.90;18.20
7476;DHT22;3779;49.216;8.650;2022-12-18T01:15:31;14.90;18.30
7476;DHT22;3779;49.216;8.650;2022-12-18T01:18:17;15.00;18.40
7476;DHT22;3779;49.216;8.650;2022-12-18T01:21:11;14.90;18.40
7476;DHT22;3779;49.216;8.650;2022-12-18T01:23:57;14.90;18.60
7476;DHT22;3779;49.216;8.650;2022-12-18T01:26:44;15.00;18.50
7476;DHT22;3779;49.216;8.650;2022-12-18T01:29:29;15.00;18.40
7476;DHT22;3779;49.216;8.650;2022-12-18T01:32:16;15.00;18.40
7476;DHT22;3779;49.216;8.650;2022-12-18T01:35:03;14.90;18.30
7476;DHT22;3779;49.216;8.650;2022-12-18T01:37:49;14.90;18.40
7476;DHT22;3779;49.216;8.650;2022-12-18T01:40:35;14.90;18.40
7476;DHT22;3779;49.216;8.650;2022-12-18T01:43:21;14.90;18.40
7476;DHT22;3779;49.216;8.650;2022-12-18T01:46:06;15.00;18.30
7476;DHT22;3779;49.216;8.650;2022-12-18T01:48:59;15.00;18.50
7476;DHT22;3779;49.216;8.650;2022-12-18T01:51:46;15.00;18.50
7476;DHT22;3779;49.216;8.650;2022-12-18T01:54:32;15.00;18.20
7476;DHT22;3779;49.216;8.650;2022-12-18T01:57:18;15.00;18.20
7476;DHT22;3779;49.216;8.650;2022-12-18T02:00:12;14.90;18.20
7476;DHT22;3779;49.216;8.650;2022-12-18T02:03:01;14.90;18.30
7476;DHT22;3779;49.216;8.650;2022-12-18T02:09:11;14.90;18.40
7476;DHT22;3779;49.216;8.650;2022-12-18T02:12:06;14.90;18.70
7476;DHT22;3779;49.216;8.650;2022-12-18T02:18:11;14.90;18.10
7476;DHT22;3779;49.216;8.650;2022-12-18T02:21:12;14.90;18.10
7476;DHT22;3779;49.216;8.650;2022-12-18T02:24:27;14.90;18.10
7476;DHT22;3779;49.216;8.650;2022-12-18T02:27:15;14.90;18.00
7476;DHT22;3779;49.216;8.650;2022-12-18T02:30:02;14.90;18.00
7476;DHT22;3779;49.216;8.650;2022-12-18T02:32:52;14.90;18.00
7476;DHT22;3779;49.216;8.650;2022-12-18T02:35:40;14.90;18.00
7476;DHT22;3779;49.216;8.650;2022-12-18T02:38:29;14.90;18.00
7476;DHT22;3779;49.216;8.650;2022-12-18T02:41:21;14.90;18.00
7476;DHT22;3779;49.216;8.650;2022-12-18T02:44:11;14.90;18.00
7476;DHT22;3779;49.216;8.650;2022-12-18T02:46:57;14.90;18.10
7476;DHT22;3779;49.216;8.650;2022-12-18T02:50:20;14.90;18.00
7476;DHT22;3779;49.216;8.650;2022-12-18T02:53:38;14.90;18.10
7476;DHT22;3779;49.216;8.650;2022-12-18T02:56:55;14.90;18.00
7476;DHT22;3779;49.216;8.650;2022-12-18T03:05:52;14.90;18.00
7476;DHT22;3779;49.216;8.650;2022-12-18T03:08:43;14.90;17.90
7476;DHT22;3779;49.216;8.650;2022-12-18T03:11:33;14.90;17.90
7476;DHT22;3779;49.216;8.650;2022-12-18T03:14:41;14.90;17.90
7476;DHT22;3779;49.216;8.650;2022-12-18T03:17:32;14.90;17.90
7476;DHT22;3779;49.216;8.650;2022-12-18T03:20:20;14.90;17.50
7476;DHT22;3779;49.216;8.650;2022-12-18T03:23:15;14.80;17.30
7476;DHT22;3779;49.216;8.650;2022-12-18T03:26:09;14.80;17.10
7476;DHT22;3779;49.216;8.650;2022-12-18T03:29:24;14.80;16.90
7476;DHT22;3779;49.216;8.650;2022-12-18T03:32:15;14.80;16.90
7476;DHT22;3779;49.216;8.650;2022-12-18T03:35:04;14.80;16.90
7476;DHT22;3779;49.216;8.650;2022-12-18T03:37:55;14.80;16.90
7476;DHT22;3779;49.216;8.650;2022-12-18T03:41:00;15.00;17.00
7476;DHT22;3779;49.216;8.650;2022-12-18T03:44:09;14.70;16.90
7476;DHT22;3779;49.216;8.650;2022-12-18T03:56:14;14.80;16.60
7476;DHT22;3779;49.216;8.650;2022-12-18T03:59:04;14.70;16.60
7476;DHT22;3779;49.216;8.650;2022-12-18T04:01:53;14.70;16.40
7476;DHT22;3779;49.216;8.650;2022-12-18T04:04:42;14.70;16.40
7476;DHT22;3779;49.216;8.650;2022-12-18T04:07:29;14.70;16.40
7476;DHT22;3779;49.216;8.650;2022-12-18T04:10:18;14.70;16.40
7476;DHT22;3779;49.216;8.650;2022-12-18T04:13:06;14.70;16.40
7476;DHT22;3779;49.216;8.650;2022-12-18T04:15:52;14.70;16.30
7476;DHT22;3779;49.216;8.650;2022-12-18T04:18:39;14.70;16.20
7476;DHT22;3779;49.216;8.650;2022-12-18T04:21:25;14.70;16.50
7476;DHT22;3779;49.216;8.650;2022-12-18T04:24:12;14.70;17.20
7476;DHT22;3779;49.216;8.650;2022-12-18T04:27:05;14.70;17.80
7476;DHT22;3779;49.216;8.650;2022-12-18T04:29:57;14.80;18.30
7476;DHT22;3779;49.216;8.650;2022-12-18T04:32:43;14.80;18.40
7476;DHT22;3779;49.216;8.650;2022-12-18T04:35:29;14.80;18.50
7476;DHT22;3779;49.216;8.650;2022-12-18T04:38:16;14.80;18.60
7476;DHT22;3779;49.216;8.650;2022-12-18T04:41:03;14.80;18.70
7476;DHT22;3779;49.216;8.650;2022-12-18T04:43:49;14.90;18.90
7476;DHT22;3779;49.216;8.650;2022-12-18T04:46:35;14.80;19.00
7476;DHT22;3779;49.216;8.650;2022-12-18T04:49:21;14.90;19.00
7476;DHT22;3779;49.216;8.650;2022-12-18T04:52:07;14.90;19.00
7476;DHT22;3779;49.216;8.650;2022-12-18T04:54:53;14.90;19.20
7476;DHT22;3779;49.216;8.650;2022-12-18T04:57:39;14.90;19.20
7476;DHT22;3779;49.216;8.650;2022-12-18T05:00:25;14.90;19.50
7476;DHT22;3779;49.216;8.650;2022-12-18T05:03:11;14.90;19.10
7476;DHT22;3779;49.216;8.650;2022-12-18T05:05:57;14.90;19.20
7476;DHT22;3779;49.216;8.650;2022-12-18T05:08:43;14.90;19.10
7476;DHT22;3779;49.216;8.650;2022-12-18T05:11:29;14.90;19.10
7476;DHT22;3779;49.216;8.650;2022-12-18T05:14:14;14.90;19.20
7476;DHT22;3779;49.216;8.650;2022-12-18T05:17:00;14.90;19.20
7476;DHT22;3779;49.216;8.650;2022-12-18T05:19:46;14.90;19.30
7476;DHT22;3779;49.216;8.650;2022-12-18T05:22:32;14.90;19.40
7476;DHT22;3779;49.216;8.650;2022-12-18T05:25:18;14.90;19.50
7476;DHT22;3779;49.216;8.650;2022-12-18T05:28:04;15.00;19.60
7476;DHT22;3779;49.216;8.650;2022-12-18T05:30:53;15.00;20.10
7476;DHT22;3779;49.216;8.650;2022-12-18T05:33:39;14.90;19.40
7476;DHT22;3779;49.216;8.650;2022-12-18T05:36:25;15.10;19.50
7476;DHT22;3779;49.216;8.650;2022-12-18T05:39:10;15.00;19.70
7476;DHT22;3779;49.216;8.650;2022-12-18T05:41:56;15.00;19.70
7476;DHT22;3779;49.216;8.650;2022-12-18T05:44:43;15.00;19.50
7476;DHT22;3779;49.216;8.650;2022-12-18T05:47:30;15.00;19.50
7476;DHT22;3779;49.216;8.650;2022-12-18T05:50:16;15.00;19.50
7476;DHT22;3779;49.216;8.650;2022-12-18T05:53:04;14.90;19.40
7476;DHT22;3779;49.216;8.650;2022-12-18T05:55:50;14.90;19.80
7476;DHT22;3779;49.216;8.650;2022-12-18T05:58:36;14.90;19.60
7476;DHT22;3779;49.216;8.650;2022-12-18T06:01:25;14.90;19.70
7476;DHT22;3779;49.216;8.650;2022-12-18T06:04:12;15.00;19.70
7476;DHT22;3779;49.216;8.650;2022-12-18T06:06:58;14.90;19.50
7476;DHT22;3779;49.216;8.650;2022-12-18T06:09:44;15.00;19.50
7476;DHT22;3779;49.216;8.650;2022-12-18T06:12:30;14.90;19.90
7476;DHT22;3779;49.216;8.650;2022-12-18T06:15:16;14.90;19.70
7476;DHT22;3779;49.216;8.650;2022-12-18T06:18:02;14.90;19.50
7476;DHT22;3779;49.216;8.650;2022-12-18T06:20:55;14.90;19.50
7476;DHT22;3779;49.216;8.650;2022-12-18T06:23:41;15.00;19.60
7476;DHT22;3779;49.216;8.650;2022-12-18T06:26:27;15.00;19.40
7476;DHT22;3779;49.216;8.650;2022-12-18T06:29:13;14.90;19.30
7476;DHT22;3779;49.216;8.650;2022-12-18T06:31:59;14.90;19.30
7476;DHT22;3779;49.216;8.650;2022-12-18T06:34:45;14.90;19.20
7476;DHT22;3779;49.216;8.650;2022-12-18T06:37:31;14.90;19.20
7476;DHT22;3779;49.216;8.650;2022-12-18T06:40:17;14.90;19.30
7476;DHT22;3779;49.216;8.650;2022-12-18T06:43:03;14.90;19.20
7476;DHT22;3779;49.216;8.650;2022-12-18T06:45:49;14.90;19.10
7476;DHT22;3779;49.216;8.650;2022-12-18T06:48:38;14.90;19.00
7476;DHT22;3779;49.216;8.650;2022-12-18T06:51:24;14.90;19.20
7476;DHT22;3779;49.216;8.650;2022-12-18T06:54:10;14.90;19.20
7476;DHT22;3779;49.216;8.650;2022-12-18T06:56:56;14.90;19.10
7476;DHT22;3779;49.216;8.650;2022-12-18T06:59:42;14.90;19.10
7476;DHT22;3779;49.216;8.650;2022-12-18T07:02:28;14.90;19.00
7476;DHT22;3779;49.216;8.650;2022-12-18T07:05:14;14.90;19.00
7476;DHT22;3779;49.216;8.650;2022-12-18T07:08:01;15.00;18.70
7476;DHT22;3779;49.216;8.650;2022-12-18T07:10:47;15.20;18.70
7476;DHT22;3779;49.216;8.650;2022-12-18T07:13:34;15.00;19.00
7476;DHT22;3779;49.216;8.650;2022-12-18T07:16:21;14.90;19.00
7476;DHT22;3779;49.216;8.650;2022-12-18T07:19:07;14.80;18.90
7476;DHT22;3779;49.216;8.650;2022-12-18T07:21:52;14.80;18.90
7476;DHT22;3779;49.216;8.650;2022-12-18T07:24:38;14.80;19.00
7476;DHT22;3779;49.216;8.650;2022-12-18T07:27:24;14.80;19.10
7476;DHT22;3779;49.216;8.650;2022-12-18T07:30:10;14.80;19.10
7476;DHT22;3779;49.216;8.650;2022-12-18T07:32:56;14.70;19.10
7476;DHT22;3779;49.216;8.650;2022-12-18T07:35:42;14.70;19.10
7476;DHT22;3779;49.216;8.650;2022-12-18T07:38:29;14.70;19.30
7476;DHT22;3779;49.216;8.650;2022-12-18T07:41:15;14.70;19.20
7476;DHT22;3779;49.216;8.650;2022-12-18T07:44:01;14.90;18.50
7476;DHT22;3779;49.216;8.650;2022-12-18T07:46:47;15.10;18.80
7476;DHT22;3779;49.216;8.650;2022-12-18T07:49:33;14.80;19.40
7476;DHT22;3779;49.216;8.650;2022-12-18T07:52:19;14.70;19.30
7476;DHT22;3779;49.216;8.650;2022-12-18T07:55:05;14.70;19.60
7476;DHT22;3779;49.216;8.650;2022-12-18T07:57:51;14.60;19.20
7476;DHT22;3779;49.216;8.650;2022-12-18T08:00:37;14.60;19.40
7476;DHT22;3779;49.216;8.650;2022-12-18T08:03:23;14.60;19.60
7476;DHT22;3779;49.216;8.650;2022-12-18T08:06:09;14.60;19.30
7476;DHT22;3779;49.216;8.650;2022-12-18T08:08:56;14.60;19.30
7476;DHT22;3779;49.216;8.650;2022-12-18T08:11:42;14.60;19.40
7476;DHT22;3779;49.216;8.650;2022-12-18T08:14:29;14.60;20.10
7476;DHT22;3779;49.216;8.650;2022-12-18T08:17:14;14.60;18.90
7476;DHT22;3779;49.216;8.650;2022-12-18T08:20:00;14.60;18.80
7476;DHT22;3779;49.216;8.650;2022-12-18T08:22:46;14.60;19.00
7476;DHT22;3779;49.216;8.650;2022-12-18T08:25:33;14.60;19.00
7476;DHT22;3779;49.216;8.650;2022-12-18T08:28:19;14.60;19.10
7476;DHT22;3779;49.216;8.650;2022-12-18T08:31:07;14.60;19.40
7476;DHT22;3779;49.216;8.650;2022-12-18T08:33:53;14.50;19.20
7476;DHT22;3779;49.216;8.650;2022-12-18T08:36:40;14.50;19.10
7476;DHT22;3779;49.216;8.650;2022-12-18T08:39:26;14.60;18.90
7476;DHT22;3779;49.216;8.650;2022-12-18T08:42:12;14.60;18.90
7476;DHT22;3779;49.216;8.650;2022-12-18T08:45:19;14.50;19.20
7476;DHT22;3779;49.216;8.650;2022-12-18T08:48:05;14.50;19.30
7476;DHT22;3779;49.216;8.650;2022-12-18T08:50:55;14.60;19.50
7476;DHT22;3779;49.216;8.650;2022-12-18T08:53:42;14.50;19.70
7476;DHT22;3779;49.216;8.650;2022-12-18T08:56:27;14.50;19.40
7476;DHT22;3779;49.216;8.650;2022-12-18T08:59:18;14.50;19.60
7476;DHT22;3779;49.216;8.650;2022-12-18T09:02:05;14.60;19.80
7476;DHT22;3779;49.216;8.650;2022-12-18T09:04:51;14.60;20.00
7476;DHT22;3779;49.216;8.650;2022-12-18T09:07:36;14.60;20.00
7476;DHT22;3779;49.216;8.650;2022-12-18T09:10:22;14.60;19.80
7476;DHT22;3779;49.216;8.650;2022-12-18T09:13:10;14.70;19.90
7476;DHT22;3779;49.216;8.650;2022-12-18T09:15:56;14.60;19.80
7476;DHT22;3779;49.216;8.650;2022-12-18T09:18:42;14.70;19.70
7476;DHT22;3779;49.216;8.650;2022-12-18T09:21:30;14.70;20.60
7476;DHT22;3779;49.216;8.650;2022-12-18T09:24:17;14.90;20.10
7476;DHT22;3779;49.216;8.650;2022-12-18T09:27:03;14.70;19.90
7476;DHT22;3779;49.216;8.650;2022-12-18T09:29:49;14.70;20.50
7476;DHT22;3779;49.216;8.650;2022-12-18T09:32:35;14.70;21.90
7476;DHT22;3779;49.216;8.650;2022-12-18T09:35:21;14.80;20.40
7476;DHT22;3779;49.216;8.650;2022-12-18T09:38:18;14.70;20.10
7476;DHT22;3779;49.216;8.650;2022-12-18T09:50:03;14.70;21.00
7476;DHT22;3779;49.216;8.650;2022-12-18T09:52:53;14.80;21.40
7476;DHT22;3779;49.216;8.650;2022-12-18T09:55:42;14.80;21.30
7476;DHT22;3779;49.216;8.650;2022-12-18T09:58:31;14.80;21.20
7476;DHT22;3779;49.216;8.650;2022-12-18T10:01:22;14.80;20.80
7476;DHT22;3779;49.216;8.650;2022-12-18T10:04:08;14.80;21.10
7476;DHT22;3779;49.216;8.650;2022-12-18T10:07:03;14.80;21.80
7476;DHT22;3779;49.216;8.650;2022-12-18T10:10:16;14.90;21.50
7476;DHT22;3779;49.216;8.650;2022-12-18T10:13:24;14.80;21.60
7476;DHT22;3779;49.216;8.650;2022-12-18T10:16:28;14.80;21.60
7476;DHT22;3779;49.216;8.650;2022-12-18T10:19:40;14.90;21.90
7476;DHT22;3779;49.216;8.650;2022-12-18T10:22:57;14.90;24.50
7476;DHT22;3779;49.216;8.650;2022-12-18T10:26:02;15.00;22.00
7476;DHT22;3779;49.216;8.650;2022-12-18T10:28:49;14.90;21.60
7476;DHT22;3779;49.216;8.650;2022-12-18T10:31:36;14.90;21.80
7476;DHT22;3779;49.216;8.650;2022-12-18T10:34:23;14.90;21.40
7476;DHT22;3779;49.216;8.650;2022-12-18T10:37:19;14.90;23.10
7476;DHT22;3779;49.216;8.650;2022-12-18T10:40:13;15.10;23.10
7476;DHT22;3779;49.216;8.650;2022-12-18T10:43:30;15.00;22.30
7476;DHT22;3779;49.216;8.650;2022-12-18T10:46:19;15.00;22.50
7476;DHT22;3779;49.216;8.650;2022-12-18T10:49:07;15.00;22.00
7476;DHT22;3779;49.216;8.650;2022-12-18T10:52:25;15.00;21.90
7476;DHT22;3779;49.216;8.650;2022-12-18T10:55:16;15.00;22.10
7476;DHT22;3779;49.216;8.650;2022-12-18T10:58:31;15.00;22.30
7476;DHT22;3779;49.216;8.650;2022-12-18T11:01:18;15.00;21.90
7476;DHT22;3779;49.216;8.650;2022-12-18T11:04:08;15.00;22.20
7476;DHT22;3779;49.216;8.650;2022-12-18T11:06:57;15.00;23.20
7476;DHT22;3779;49.216;8.650;2022-12-18T11:10:00;15.10;22.50
7476;DHT22;3779;49.216;8.650;2022-12-18T11:12:46;15.10;22.60
7476;DHT22;3779;49.216;8.650;2022-12-18T11:15:33;15.00;22.20
7476;DHT22;3779;49.216;8.650;2022-12-18T11:21:10;15.00;22.60
7476;DHT22;3779;49.216;8.650;2022-12-18T11:23:57;15.10;22.80
7476;DHT22;3779;49.216;8.650;2022-12-18T11:26:43;15.10;22.60
7476;DHT22;3779;49.216;8.650;2022-12-18T11:29:38;15.00;22.10
7476;DHT22;3779;49.216;8.650;2022-12-18T11:32:43;15.10;22.70
7476;DHT22;3779;49.216;8.650;2022-12-18T11:35:50;15.00;22.70
7476;DHT22;3779;49.216;8.650;2022-12-18T11:38:39;15.00;22.70
7476;DHT22;3779;49.216;8.650;2022-12-18T11:41:42;15.10;22.70
7476;DHT22;3779;49.216;8.650;2022-12-18T11:44:52;15.00;23.00
7476;DHT22;3779;49.216;8.650;2022-12-18T11:48:32;15.00;23.00
7476;DHT22;3779;49.216;8.650;2022-12-18T11:51:00;15.10;22.70
7476;DHT22;3779;49.216;8.650;2022-12-18T11:53:47;15.10;22.60
7476;DHT22;3779;49.216;8.650;2022-12-18T11:56:42;15.10;22.40
7476;DHT22;3779;49.216;8.650;2022-12-18T12:09:31;15.10;22.80
7476;DHT22;3779;49.216;8.650;2022-12-18T12:21:09;15.10;23.10
7476;DHT22;3779;49.216;8.650;2022-12-18T12:30:07;15.10;23.10
7476;DHT22;3779;49.216;8.650;2022-12-18T12:39:37;15.10;23.20
7476;DHT22;3779;49.216;8.650;2022-12-18T12:42:31;15.10;23.30
7476;DHT22;3779;49.216;8.650;2022-12-18T12:51:28;15.10;24.40
7476;DHT22;3779;49.216;8.650;2022-12-18T12:54:20;15.20;24.00
7476;DHT22;3779;49.216;8.650;2022-12-18T12:57:24;15.20;23.90
7476;DHT22;3779;49.216;8.650;2022-12-18T13:00:17;15.20;24.10
7476;DHT22;3779;49.216;8.650;2022-12-18T13:06:44;15.20;23.70
7476;DHT22;3779;49.216;8.650;2022-12-18T13:09:33;15.10;23.80
7476;DHT22;3779;49.216;8.650;2022-12-18T13:12:19;15.20;24.00
7476;DHT22;3779;49.216;8.650;2022-12-18T13:15:42;15.20;24.30
7476;DHT22;3779;49.216;8.650;2022-12-18T13:18:29;15.20;24.20
7476;DHT22;3779;49.216;8.650;2022-12-18T13:21:23;15.20;24.00
7476;DHT22;3779;49.216;8.650;2022-12-18T13:24:31;15.30;24.10
7476;DHT22;3779;49.216;8.650;2022-12-18T13:44:51;15.20;24.40
7476;DHT22;3779;49.216;8.650;2022-12-18T13:47:38;15.20;24.30
7476;DHT22;3779;49.216;8.650;2022-12-18T13:50:24;15.20;24.40
7476;DHT22;3779;49.216;8.650;2022-12-18T13:53:23;15.20;24.40
7476;DHT22;3779;49.216;8.650;2022-12-18T13:56:21;15.20;24.60
7476;DHT22;3779;49.216;8.650;2022-12-18T14:02:21;15.20;24.90
7476;DHT22;3779;49.216;8.650;2022-12-18T14:05:22;15.20;25.00
7476;DHT22;3779;49.216;8.650;2022-12-18T14:08:11;15.20;24.80
7476;DHT22;3779;49.216;8.650;2022-12-18T14:10:58;15.30;24.60
7476;DHT22;3779;49.216;8.650;2022-12-18T14:13:44;15.20;24.60
7476;DHT22;3779;49.216;8.650;2022-12-18T14:16:31;15.30;24.70
7476;DHT22;3779;49.216;8.650;2022-12-18T14:19:18;15.30;24.70
7476;DHT22;3779;49.216;8.650;2022-12-18T14:22:04;15.30;24.80
7476;DHT22;3779;49.216;8.650;2022-12-18T14:25:10;15.30;24.80
7476;DHT22;3779;49.216;8.650;2022-12-18T14:30:54;15.30;24.80
7476;DHT22;3779;49.216;8.650;2022-12-18T14:33:40;15.30;25.80
7476;DHT22;3779;49.216;8.650;2022-12-18T14:36:28;15.30;24.80
7476;DHT22;3779;49.216;8.650;2022-12-18T14:39:17;15.30;25.20
7476;DHT22;3779;49.216;8.650;2022-12-18T14:42:03;15.30;25.20
7476;DHT22;3779;49.216;8.650;2022-12-18T14:44:49;15.30;24.90
7476;DHT22;3779;49.216;8.650;2022-12-18T14:47:35;15.30;24.80
7476;DHT22;3779;49.216;8.650;2022-12-18T14:50:21;15.30;24.50
7476;DHT22;3779;49.216;8.650;2022-12-18T14:53:21;15.30;24.80
7476;DHT22;3779;49.216;8.650;2022-12-18T14:56:29;15.30;25.00
7476;DHT22;3779;49.216;8.650;2022-12-18T14:59:23;15.30;25.00
7476;DHT22;3779;49.216;8.650;2022-12-18T15:02:21;15.30;24.60
7476;DHT22;3779;49.216;8.650;2022-12-18T15:05:18;15.30;25.00
7476;DHT22;3779;49.216;8.650;2022-12-18T15:08:28;15.30;25.10
7476;DHT22;3779;49.216;8.650;2022-12-18T15:11:34;15.30;25.10
7476;DHT22;3779;49.216;8.650;2022-12-18T15:14:38;15.30;24.90
7476;DHT22;3779;49.216;8.650;2022-12-18T15:17:24;15.30;24.80
7476;DHT22;3779;49.216;8.650;2022-12-18T15:20:11;15.30;24.80
7476;DHT22;3779;49.216;8.650;2022-12-18T15:22:57;15.30;25.30
7476;DHT22;3779;49.216;8.650;2022-12-18T15:25:43;15.30;24.70
7476;DHT22;3779;49.216;8.650;2022-12-18T15:28:35;15.30;25.00
7476;DHT22;3779;49.216;8.650;2022-12-18T15:34:13;15.30;24.90
7476;DHT22;3779;49.216;8.650;2022-12-18T15:37:00;15.30;24.80
7476;DHT22;3779;49.216;8.650;2022-12-18T15:39:46;15.30;24.20
7476;DHT22;3779;49.216;8.650;2022-12-18T15:42:32;15.30;24.60
7476;DHT22;3779;49.216;8.650;2022-12-18T15:45:36;15.30;24.60
7476;DHT22;3779;49.216;8.650;2022-12-18T15:48:22;15.30;24.10
7476;DHT22;3779;49.216;8.650;2022-12-18T15:51:14;15.20;24.00
7476;DHT22;3779;49.216;8.650;2022-12-18T15:54:03;15.30;24.30
7476;DHT22;3779;49.216;8.650;2022-12-18T15:56:49;15.20;24.00
7476;DHT22;3779;49.216;8.650;2022-12-18T15:59:55;15.20;24.40
7476;DHT22;3779;49.216;8.650;2022-12-18T16:02:43;15.30;24.20
7476;DHT22;3779;49.216;8.650;2022-12-18T16:05:30;15.30;24.00
7476;DHT22;3779;49.216;8.650;2022-12-18T16:08:16;15.30;24.00
7476;DHT22;3779;49.216;8.650;2022-12-18T16:11:02;15.30;24.10
7476;DHT22;3779;49.216;8.650;2022-12-18T16:13:49;15.30;24.00
7476;DHT22;3779;49.216;8.650;2022-12-18T16:16:35;15.40;24.10
7476;DHT22;3779;49.216;8.650;2022-12-18T16:19:21;15.40;24.00
7476;DHT22;3779;49.216;8.650;2022-12-18T16:22:18;15.40;24.00
7476;DHT22;3779;49.216;8.650;2022-12-18T16:25:05;15.30;24.20
7476;DHT22;3779;49.216;8.650;2022-12-18T16:27:52;15.40;24.20
7476;DHT22;3779;49.216;8.650;2022-12-18T16:30:39;15.40;24.20
7476;DHT22;3779;49.216;8.650;2022-12-18T16:33:26;15.40;24.10
7476;DHT22;3779;49.216;8.650;2022-12-18T16:36:12;15.40;24.20
7476;DHT22;3779;49.216;8.650;2022-12-18T16:38:57;15.40;24.10
7476;DHT22;3779;49.216;8.650;2022-12-18T16:41:43;15.40;24.50
7476;DHT22;3779;49.216;8.650;2022-12-18T16:44:29;15.40;24.30
7476;DHT22;3779;49.216;8.650;2022-12-18T16:47:16;15.50;24.30
7476;DHT22;3779;49.216;8.650;2022-12-18T16:50:03;15.40;24.30
7476;DHT22;3779;49.216;8.650;2022-12-18T16:52:49;15.50;24.50
7476;DHT22;3779;49.216;8.650;2022-12-18T16:55:36;15.50;24.30
7476;DHT22;3779;49.216;8.650;2022-12-18T16:58:22;15.40;24.20
7476;DHT22;3779;49.216;8.650;2022-12-18T17:01:09;15.50;24.10
7476;DHT22;3779;49.216;8.650;2022-12-18T17:04:01;15.40;24.10
7476;DHT22;3779;49.216;8.650;2022-12-18T17:06:47;15.40;24.50
7476;DHT22;3779;49.216;8.650;2022-12-18T17:09:38;15.50;24.30
7476;DHT22;3779;49.216;8.650;2022-12-18T17:12:24;15.50;24.50
7476;DHT22;3779;49.216;8.650;2022-12-18T17:15:11;15.50;24.30
7476;DHT22;3779;49.216;8.650;2022-12-18T17:17:57;15.50;24.30
7476;DHT22;3779;49.216;8.650;2022-12-18T17:20:43;15.50;24.30
7476;DHT22;3779;49.216;8.650;2022-12-18T17:23:29;15.60;24.40
7476;DHT22;3779;49.216;8.650;2022-12-18T17:26:15;15.60;24.40
7476;DHT22;3779;49.216;8.650;2022-12-18T17:29:01;15.50;24.20
7476;DHT22;3779;49.216;8.650;2022-12-18T17:31:47;15.80;23.70
7476;DHT22;3779;49.216;8.650;2022-12-18T17:34:34;16.10;23.30
7476;DHT22;3779;49.216;8.650;2022-12-18T17:37:21;16.10;23.10
7476;DHT22;3779;49.216;8.650;2022-12-18T17:40:07;16.10;23.10
7476;DHT22;3779;49.216;8.650;2022-12-18T17:42:53;16.10;23.20
7476;DHT22;3779;49.216;8.650;2022-12-18T17:45:39;16.00;23.20
7476;DHT22;3779;49.216;8.650;2022-12-18T17:48:26;16.00;23.30
7476;DHT22;3779;49.216;8.650;2022-12-18T17:51:13;16.00;23.70
7476;DHT22;3779;49.216;8.650;2022-12-18T17:53:59;16.00;23.30
7476;DHT22;3779;49.216;8.650;2022-12-18T17:56:45;15.90;23.20
7476;DHT22;3779;49.216;8.650;2022-12-18T17:59:31;15.90;23.30
7476;DHT22;3779;49.216;8.650;2022-12-18T18:02:17;15.80;23.20
7476;DHT22;3779;49.216;8.650;2022-12-18T18:05:04;15.80;23.40
7476;DHT22;3779;49.216;8.650;2022-12-18T18:07:49;15.80;23.50
7476;DHT22;3779;49.216;8.650;2022-12-18T18:10:37;15.80;23.50
7476;DHT22;3779;49.216;8.650;2022-12-18T18:13:25;15.80;23.40
7476;DHT22;3779;49.216;8.650;2022-12-18T18:16:38;15.80;23.60
7476;DHT22;3779;49.216;8.650;2022-12-18T18:19:24;15.70;23.60
7476;DHT22;3779;49.216;8.650;2022-12-18T18:22:11;15.80;23.50
7476;DHT22;3779;49.216;8.650;2022-12-18T18:24:57;15.70;23.60
7476;DHT22;3779;49.216;8.650;2022-12-18T18:27:42;15.70;23.60
7476;DHT22;3779;49.216;8.650;2022-12-18T18:30:28;15.70;23.50
7476;DHT22;3779;49.216;8.650;2022-12-18T18:33:14;15.70;23.50
7476;DHT22;3779;49.216;8.650;2022-12-18T18:36:00;15.70;23.50
7476;DHT22;3779;49.216;8.650;2022-12-18T18:38:46;15.70;23.60
7476;DHT22;3779;49.216;8.650;2022-12-18T18:41:32;15.70;23.40
7476;DHT22;3779;49.216;8.650;2022-12-18T18:44:19;15.70;23.50
7476;DHT22;3779;49.216;8.650;2022-12-18T18:47:05;15.70;23.50
7476;DHT22;3779;49.216;8.650;2022-12-18T18:49:51;15.70;23.40
7476;DHT22;3779;49.216;8.650;2022-12-18T18:52:37;15.70;23.40
7476;DHT22;3779;49.216;8.650;2022-12-18T18:55:23;15.70;23.90
7476;DHT22;3779;49.216;8.650;2022-12-18T18:58:09;15.70;23.70
7476;DHT22;3779;49.216;8.650;2022-12-18T19:01:01;15.70;23.60
7476;DHT22;3779;49.216;8.650;2022-12-18T19:03:47;15.70;23.80
7476;DHT22;3779;49.216;8.650;2022-12-18T19:06:34;15.70;23.70
7476;DHT22;3779;49.216;8.650;2022-12-18T19:09:20;15.70;23.60
7476;DHT22;3779;49.216;8.650;2022-12-18T19:12:06;15.70;23.50
7476;DHT22;3779;49.216;8.650;2022-12-18T19:15:10;15.70;23.70
7476;DHT22;3779;49.216;8.650;2022-12-18T19:17:56;15.70;23.60
7476;DHT22;3779;49.216;8.650;2022-12-18T19:20:42;15.70;23.70
7476;DHT22;3779;49.216;8.650;2022-12-18T19:23:29;15.70;23.60
7476;DHT22;3779;49.216;8.650;2022-12-18T19:26:16;15.70;23.70
7476;DHT22;3779;49.216;8.650;2022-12-18T19:29:04;15.60;24.30
7476;DHT22;3779;49.216;8.650;2022-12-18T19:31:50;15.30;25.10
7476;DHT22;3779;49.216;8.650;2022-12-18T19:34:36;15.10;25.90
7476;DHT22;3779;49.216;8.650;2022-12-18T19:37:22;15.10;25.40
7476;DHT22;3779;49.216;8.650;2022-12-18T19:40:08;15.10;25.70
7476;DHT22;3779;49.216;8.650;2022-12-18T19:42:54;15.20;24.90
7476;DHT22;3779;49.216;8.650;2022-12-18T19:45:40;15.10;25.10
7476;DHT22;3779;49.216;8.650;2022-12-18T19:48:26;15.40;27.50
7476;DHT22;3779;49.216;8.650;2022-12-18T19:51:23;15.30;25.90
7476;DHT22;3779;49.216;8.650;2022-12-18T19:54:09;15.30;26.00
7476;DHT22;3779;49.216;8.650;2022-12-18T19:56:56;15.40;25.50
7476;DHT22;3779;49.216;8.650;2022-12-18T19:59:42;15.40;25.70
7476;DHT22;3779;49.216;8.650;2022-12-18T20:02:27;15.40;25.80
7476;DHT22;3779;49.216;8.650;2022-12-18T20:05:13;15.50;25.70
7476;DHT22;3779;49.216;8.650;2022-12-18T20:07:59;15.50;25.90